LAN433 SAZN-SCEL
Flight info
| Callsign | LAN433 |
|---|---|
| Flight time | 1h 9m |
| Altitude | 34000 |
| Route | UGAGI UZ122 ANKON UT122 EROLO EROLO8A |
| Aircraft | A20N/M-SDE2E3FGHIRWXY/LB1 |
Departure
| Time | 2026-05-04 17:27 |
|---|---|
| Airport | Presidente Perón International Airport (SAZN) |
Arrival
| Time | 2026-05-04 18:36 |
|---|---|
| Airport | Comodoro Arturo Merino Benítez International Airport (SCEL) |
| Time | Latitude | Longitude | Altitude | Speed | Heading |
|---|---|---|---|---|---|
| 2026-05-04 17:06 | -38.95153 | -68.14069 | 903 ft | 0 kts | 179° |
| 2026-05-04 17:14 | -38.95147 | -68.14069 | 903 ft | 2 kts | 179° |
| 2026-05-04 17:15 | -38.95131 | -68.14069 | 907 ft | 2 kts | 185° |
| 2026-05-04 17:15 | -38.95101 | -68.14054 | 908 ft | 2 kts | 245° |
| 2026-05-04 17:16 | -38.95096 | -68.14019 | 906 ft | 1 kts | 269° |
| 2026-05-04 17:16 | -38.95096 | -68.14010 | 907 ft | 0 kts | 271° |
| 2026-05-04 17:19 | -38.95095 | -68.14042 | 905 ft | 5 kts | 271° |
| 2026-05-04 17:19 | -38.95094 | -68.14175 | 903 ft | 10 kts | 270° |
| 2026-05-04 17:20 | -38.95093 | -68.14393 | 903 ft | 14 kts | 270° |
| 2026-05-04 17:20 | -38.95092 | -68.14685 | 903 ft | 18 kts | 270° |
| 2026-05-04 17:20 | -38.95091 | -68.14851 | 903 ft | 19 kts | 270° |
| 2026-05-04 17:21 | -38.94938 | -68.15085 | 902 ft | 19 kts | 313° |
| 2026-05-04 17:21 | -38.94900 | -68.15419 | 904 ft | 19 kts | 270° |
| 2026-05-04 17:22 | -38.94899 | -68.15594 | 905 ft | 20 kts | 270° |
| 2026-05-04 17:22 | -38.94898 | -68.15778 | 905 ft | 21 kts | 269° |
| 2026-05-04 17:23 | -38.94897 | -68.16395 | 903 ft | 25 kts | 270° |
| 2026-05-04 17:23 | -38.94897 | -68.16621 | 901 ft | 26 kts | 268° |
| 2026-05-04 17:23 | -38.94918 | -68.17011 | 902 ft | 8 kts | 309° |
| 2026-05-04 17:24 | -38.94900 | -68.17009 | 904 ft | 3 kts | 25° |
| 2026-05-04 17:24 | -38.94896 | -68.16986 | 902 ft | 0 kts | 93° |
| 2026-05-04 17:26 | -38.94897 | -68.16963 | 902 ft | 17 kts | 93° |
| 2026-05-04 17:26 | -38.94899 | -68.13982 | 1281 ft | 158 kts | 89° |
| 2026-05-04 17:27 | -38.94874 | -68.11081 | 2507 ft | 164 kts | 86° |
| 2026-05-04 17:27 | -38.94195 | -68.08173 | 3292 ft | 189 kts | 43° |
| 2026-05-04 17:28 | -38.91621 | -68.07447 | 3961 ft | 216 kts | 330° |
| 2026-05-04 17:29 | -38.89115 | -68.12508 | 6263 ft | 233 kts | 290° |
| 2026-05-04 17:29 | -38.87356 | -68.18349 | 9165 ft | 237 kts | 291° |
| 2026-05-04 17:30 | -38.85463 | -68.24632 | 10848 ft | 282 kts | 290° |
| 2026-05-04 17:31 | -38.83865 | -68.29404 | 12276 ft | 295 kts | 298° |
| 2026-05-04 17:31 | -38.80510 | -68.36243 | 14550 ft | 307 kts | 298° |
| 2026-05-04 17:32 | -38.78200 | -68.40897 | 15911 ft | 315 kts | 298° |
| 2026-05-04 17:33 | -38.74617 | -68.48109 | 17849 ft | 327 kts | 298° |
| 2026-05-04 17:33 | -38.73384 | -68.50588 | 18408 ft | 330 kts | 298° |
| 2026-05-04 17:34 | -38.69639 | -68.58107 | 19917 ft | 339 kts | 298° |
| 2026-05-04 17:34 | -38.68375 | -68.60643 | 20490 ft | 342 kts | 298° |
| 2026-05-04 17:35 | -38.63551 | -68.67669 | 22195 ft | 368 kts | 319° |
| 2026-05-04 17:35 | -38.58832 | -68.70523 | 23279 ft | 383 kts | 328° |
| 2026-05-04 17:35 | -38.56368 | -68.71882 | 23741 ft | 386 kts | 328° |
| 2026-05-04 17:36 | -38.53907 | -68.73250 | 24226 ft | 388 kts | 328° |
| 2026-05-04 17:36 | -38.51406 | -68.74643 | 24680 ft | 391 kts | 328° |
| 2026-05-04 17:36 | -38.48947 | -68.76010 | 25117 ft | 393 kts | 328° |
| 2026-05-04 17:36 | -38.46489 | -68.77375 | 25537 ft | 396 kts | 328° |
| 2026-05-04 17:37 | -38.43949 | -68.78784 | 25960 ft | 398 kts | 328° |
| 2026-05-04 17:37 | -38.41400 | -68.80197 | 26404 ft | 401 kts | 328° |
| 2026-05-04 17:37 | -38.38833 | -68.81617 | 26822 ft | 403 kts | 328° |
| 2026-05-04 17:37 | -38.36257 | -68.83042 | 27139 ft | 405 kts | 328° |
| 2026-05-04 17:38 | -38.33684 | -68.84464 | 27480 ft | 408 kts | 328° |
| 2026-05-04 17:38 | -38.31056 | -68.85915 | 27882 ft | 410 kts | 328° |
| 2026-05-04 17:38 | -38.28440 | -68.87359 | 28236 ft | 412 kts | 328° |
| 2026-05-04 17:38 | -38.25798 | -68.88815 | 28590 ft | 414 kts | 328° |
| 2026-05-04 17:39 | -38.20508 | -68.91728 | 29277 ft | 419 kts | 328° |
| 2026-05-04 17:39 | -38.17801 | -68.93216 | 29604 ft | 421 kts | 328° |
| 2026-05-04 17:39 | -38.15103 | -68.94698 | 29915 ft | 423 kts | 327° |
| 2026-05-04 17:40 | -38.12415 | -68.96173 | 30221 ft | 425 kts | 327° |
| 2026-05-04 17:40 | -38.09878 | -68.97564 | 30535 ft | 426 kts | 327° |
| 2026-05-04 17:40 | -38.07154 | -68.99056 | 30836 ft | 427 kts | 327° |
| 2026-05-04 17:40 | -38.04430 | -69.00547 | 31172 ft | 427 kts | 327° |
| 2026-05-04 17:41 | -38.01726 | -69.02024 | 31576 ft | 425 kts | 327° |
| 2026-05-04 17:41 | -37.99004 | -69.03511 | 31943 ft | 423 kts | 327° |
| 2026-05-04 17:41 | -37.96309 | -69.04982 | 32379 ft | 421 kts | 327° |
| 2026-05-04 17:41 | -37.93640 | -69.06439 | 32810 ft | 419 kts | 327° |
| 2026-05-04 17:42 | -37.90969 | -69.07896 | 33218 ft | 417 kts | 327° |
| 2026-05-04 17:42 | -37.88314 | -69.09343 | 33613 ft | 415 kts | 327° |
| 2026-05-04 17:42 | -37.85647 | -69.10797 | 33789 ft | 413 kts | 327° |
| 2026-05-04 17:42 | -37.83894 | -69.11752 | 33809 ft | 412 kts | 327° |
| 2026-05-04 17:43 | -37.77765 | -69.15091 | 33804 ft | 412 kts | 327° |
| 2026-05-04 17:43 | -37.73380 | -69.17473 | 33804 ft | 413 kts | 327° |
| 2026-05-04 17:44 | -37.68107 | -69.20330 | 33804 ft | 413 kts | 327° |
| 2026-05-04 17:44 | -37.62819 | -69.23190 | 33801 ft | 414 kts | 327° |
| 2026-05-04 17:45 | -37.57510 | -69.26058 | 33807 ft | 414 kts | 328° |
| 2026-05-04 17:45 | -37.52181 | -69.28931 | 33805 ft | 415 kts | 328° |
| 2026-05-04 17:46 | -37.46955 | -69.31744 | 33804 ft | 416 kts | 328° |
| 2026-05-04 17:46 | -37.41678 | -69.34579 | 33805 ft | 416 kts | 328° |
| 2026-05-04 17:47 | -37.36311 | -69.37459 | 33805 ft | 417 kts | 328° |
| 2026-05-04 17:47 | -37.30961 | -69.40326 | 33809 ft | 418 kts | 328° |
| 2026-05-04 17:48 | -37.25600 | -69.43192 | 33797 ft | 418 kts | 328° |
| 2026-05-04 17:48 | -37.20262 | -69.46044 | 33796 ft | 419 kts | 328° |
| 2026-05-04 17:49 | -37.14861 | -69.48925 | 33788 ft | 420 kts | 328° |
| 2026-05-04 17:49 | -37.09499 | -69.51780 | 33787 ft | 420 kts | 328° |
| 2026-05-04 17:50 | -37.04096 | -69.54653 | 33789 ft | 421 kts | 329° |
| 2026-05-04 17:50 | -36.98720 | -69.57507 | 33789 ft | 422 kts | 329° |
| 2026-05-04 17:51 | -36.93286 | -69.60387 | 33790 ft | 423 kts | 329° |
| 2026-05-04 17:51 | -36.87894 | -69.63240 | 33790 ft | 423 kts | 329° |
| 2026-05-04 17:52 | -36.82478 | -69.66101 | 33790 ft | 423 kts | 329° |
| 2026-05-04 17:52 | -36.77008 | -69.68988 | 33795 ft | 423 kts | 329° |
| 2026-05-04 17:53 | -36.71610 | -69.71832 | 33797 ft | 424 kts | 329° |
| 2026-05-04 17:53 | -36.66172 | -69.74690 | 33788 ft | 421 kts | 329° |
| 2026-05-04 17:54 | -36.60776 | -69.77525 | 33793 ft | 422 kts | 329° |
| 2026-05-04 17:54 | -36.55339 | -69.80378 | 33789 ft | 425 kts | 329° |
| 2026-05-04 17:55 | -36.49893 | -69.83229 | 33799 ft | 426 kts | 329° |
| 2026-05-04 17:55 | -36.44445 | -69.86077 | 33807 ft | 427 kts | 329° |
| 2026-05-04 17:56 | -36.38923 | -69.88959 | 33812 ft | 428 kts | 329° |
| 2026-05-04 17:56 | -36.33464 | -69.91807 | 33821 ft | 429 kts | 330° |
| 2026-05-04 17:57 | -36.27968 | -69.94668 | 33835 ft | 429 kts | 330° |
| 2026-05-04 17:57 | -36.22444 | -69.97540 | 33844 ft | 430 kts | 330° |
| 2026-05-04 17:58 | -36.16922 | -70.00407 | 33855 ft | 431 kts | 330° |
| 2026-05-04 17:58 | -36.11370 | -70.03283 | 33867 ft | 431 kts | 330° |
| 2026-05-04 17:59 | -36.05865 | -70.06131 | 33873 ft | 432 kts | 330° |
| 2026-05-04 18:00 | -35.97518 | -70.10440 | 33888 ft | 432 kts | 330° |
| 2026-05-04 18:00 | -35.91996 | -70.13285 | 33892 ft | 431 kts | 330° |
| 2026-05-04 18:01 | -35.86465 | -70.16130 | 33913 ft | 431 kts | 330° |
| 2026-05-04 18:01 | -35.80907 | -70.18985 | 33906 ft | 427 kts | 330° |
| 2026-05-04 18:02 | -35.72684 | -70.23203 | 33923 ft | 426 kts | 330° |
| 2026-05-04 18:02 | -35.67259 | -70.25978 | 33935 ft | 427 kts | 330° |
| 2026-05-04 18:03 | -35.61747 | -70.28794 | 33937 ft | 426 kts | 330° |
| 2026-05-04 18:03 | -35.56293 | -70.31576 | 33956 ft | 425 kts | 330° |
| 2026-05-04 18:04 | -35.50828 | -70.34362 | 33975 ft | 425 kts | 330° |
| 2026-05-04 18:05 | -35.42634 | -70.38529 | 34001 ft | 424 kts | 330° |
| 2026-05-04 18:05 | -35.37224 | -70.41277 | 34005 ft | 424 kts | 330° |
| 2026-05-04 18:06 | -35.29050 | -70.45419 | 34012 ft | 423 kts | 330° |
| 2026-05-04 18:06 | -35.23756 | -70.48432 | 34025 ft | 413 kts | 320° |
| 2026-05-04 18:07 | -35.19643 | -70.53086 | 34037 ft | 398 kts | 302° |
| 2026-05-04 18:07 | -35.17100 | -70.58982 | 34062 ft | 390 kts | 288° |
| 2026-05-04 18:08 | -35.15139 | -70.65148 | 34046 ft | 386 kts | 289° |
| 2026-05-04 18:08 | -35.13167 | -70.71252 | 34070 ft | 385 kts | 289° |
| 2026-05-04 18:09 | -35.09241 | -70.83386 | 34059 ft | 383 kts | 289° |
| 2026-05-04 18:10 | -35.07260 | -70.89423 | 34061 ft | 387 kts | 291° |
| 2026-05-04 18:10 | -35.04544 | -70.95084 | 34058 ft | 390 kts | 302° |
| 2026-05-04 18:11 | -35.00812 | -71.00026 | 34054 ft | 397 kts | 311° |
| 2026-05-04 18:11 | -34.96805 | -71.04597 | 34047 ft | 397 kts | 311° |
| 2026-05-04 18:12 | -34.92769 | -71.09226 | 34040 ft | 399 kts | 311° |
| 2026-05-04 18:12 | -34.88707 | -71.13872 | 34040 ft | 400 kts | 311° |
| 2026-05-04 18:13 | -34.84652 | -71.18501 | 34034 ft | 400 kts | 311° |
| 2026-05-04 18:14 | -34.78538 | -71.25467 | 34030 ft | 401 kts | 311° |
| 2026-05-04 18:14 | -34.74462 | -71.30100 | 34038 ft | 402 kts | 311° |
| 2026-05-04 18:15 | -34.70172 | -71.34463 | 34031 ft | 411 kts | 322° |
| 2026-05-04 18:15 | -34.64738 | -71.37068 | 34036 ft | 429 kts | 341° |
| 2026-05-04 18:15 | -34.61765 | -71.37458 | 34032 ft | 440 kts | 352° |
| 2026-05-04 18:16 | -34.58663 | -71.37167 | 34033 ft | 452 kts | 2° |
| 2026-05-04 18:16 | -34.55570 | -71.36128 | 34031 ft | 464 kts | 14° |
| 2026-05-04 18:16 | -34.52601 | -71.34647 | 34029 ft | 466 kts | 14° |
| 2026-05-04 18:17 | -34.46595 | -71.31677 | 33762 ft | 466 kts | 14° |
| 2026-05-04 18:17 | -34.43607 | -71.30209 | 33494 ft | 465 kts | 14° |
| 2026-05-04 18:17 | -34.37553 | -71.27245 | 32039 ft | 471 kts | 14° |
| 2026-05-04 18:18 | -34.34482 | -71.25744 | 30926 ft | 479 kts | 14° |
| 2026-05-04 18:18 | -34.31414 | -71.24245 | 30090 ft | 482 kts | 14° |
| 2026-05-04 18:18 | -34.28298 | -71.22715 | 29417 ft | 477 kts | 14° |
| 2026-05-04 18:18 | -34.25232 | -71.21210 | 28728 ft | 472 kts | 14° |
| 2026-05-04 18:19 | -34.19216 | -71.18268 | 27364 ft | 465 kts | 15° |
| 2026-05-04 18:19 | -34.16200 | -71.16797 | 26655 ft | 463 kts | 15° |
| 2026-05-04 18:19 | -34.13227 | -71.15351 | 25976 ft | 460 kts | 15° |
| 2026-05-04 18:20 | -34.10286 | -71.13920 | 25287 ft | 457 kts | 15° |
| 2026-05-04 18:20 | -34.07328 | -71.12480 | 24578 ft | 455 kts | 15° |
| 2026-05-04 18:20 | -34.04384 | -71.11049 | 23901 ft | 453 kts | 15° |
| 2026-05-04 18:20 | -34.01497 | -71.09648 | 23243 ft | 449 kts | 15° |
| 2026-05-04 18:21 | -33.98605 | -71.08247 | 22576 ft | 445 kts | 15° |
| 2026-05-04 18:21 | -33.95770 | -71.06871 | 22006 ft | 438 kts | 15° |
| 2026-05-04 18:21 | -33.92948 | -71.05501 | 21360 ft | 433 kts | 16° |
| 2026-05-04 18:21 | -33.90167 | -71.04155 | 20768 ft | 428 kts | 16° |
| 2026-05-04 18:22 | -33.87412 | -71.02824 | 20186 ft | 424 kts | 16° |
| 2026-05-04 18:22 | -33.84727 | -71.01525 | 19593 ft | 419 kts | 17° |
| 2026-05-04 18:22 | -33.82029 | -71.00220 | 18974 ft | 415 kts | 17° |
| 2026-05-04 18:22 | -33.79351 | -70.98928 | 18418 ft | 411 kts | 17° |
| 2026-05-04 18:23 | -33.76726 | -70.97661 | 17847 ft | 405 kts | 17° |
| 2026-05-04 18:23 | -33.74126 | -70.96405 | 17164 ft | 401 kts | 17° |
| 2026-05-04 18:23 | -33.71582 | -70.95179 | 16569 ft | 396 kts | 17° |
| 2026-05-04 18:23 | -33.68996 | -70.93933 | 15961 ft | 391 kts | 17° |
| 2026-05-04 18:24 | -33.66504 | -70.92733 | 15388 ft | 387 kts | 18° |
| 2026-05-04 18:24 | -33.64024 | -70.91539 | 14812 ft | 382 kts | 18° |
| 2026-05-04 18:24 | -33.61552 | -70.90352 | 14260 ft | 378 kts | 18° |
| 2026-05-04 18:24 | -33.59147 | -70.89198 | 13691 ft | 374 kts | 18° |
| 2026-05-04 18:25 | -33.56765 | -70.87994 | 13084 ft | 372 kts | 22° |
| 2026-05-04 18:25 | -33.54519 | -70.86464 | 12490 ft | 370 kts | 28° |
| 2026-05-04 18:25 | -33.52354 | -70.84848 | 11940 ft | 366 kts | 28° |
| 2026-05-04 18:25 | -33.50200 | -70.83256 | 11361 ft | 363 kts | 28° |
| 2026-05-04 18:26 | -33.48061 | -70.81680 | 10807 ft | 359 kts | 28° |
| 2026-05-04 18:26 | -33.45935 | -70.80118 | 10313 ft | 355 kts | 28° |
| 2026-05-04 18:26 | -33.44043 | -70.78727 | 10187 ft | 341 kts | 28° |
| 2026-05-04 18:26 | -33.42053 | -70.77260 | 9957 ft | 330 kts | 28° |
| 2026-05-04 18:27 | -33.40082 | -70.75817 | 9454 ft | 327 kts | 28° |
| 2026-05-04 18:27 | -33.38212 | -70.74446 | 9278 ft | 308 kts | 28° |
| 2026-05-04 18:27 | -33.36423 | -70.73132 | 9079 ft | 290 kts | 28° |
| 2026-05-04 18:27 | -33.35296 | -70.72304 | 8782 ft | 285 kts | 28° |
| 2026-05-04 18:28 | -33.33069 | -70.70677 | 8167 ft | 277 kts | 29° |
| 2026-05-04 18:28 | -33.31964 | -70.69895 | 8048 ft | 275 kts | 24° |
| 2026-05-04 18:28 | -33.29503 | -70.69232 | 7961 ft | 277 kts | 356° |
| 2026-05-04 18:28 | -33.28203 | -70.69387 | 7904 ft | 276 kts | 353° |
| 2026-05-04 18:29 | -33.25681 | -70.69717 | 7485 ft | 278 kts | 353° |
| 2026-05-04 18:29 | -33.24372 | -70.69878 | 7293 ft | 276 kts | 353° |
| 2026-05-04 18:29 | -33.22463 | -70.70112 | 6950 ft | 276 kts | 354° |
| 2026-05-04 18:29 | -33.20575 | -70.70339 | 6630 ft | 275 kts | 354° |
| 2026-05-04 18:30 | -33.16767 | -70.70813 | 5876 ft | 272 kts | 353° |
| 2026-05-04 18:30 | -33.14918 | -70.71059 | 5747 ft | 262 kts | 352° |
| 2026-05-04 18:30 | -33.13194 | -70.71751 | 5622 ft | 272 kts | 327° |
| 2026-05-04 18:31 | -33.11873 | -70.73355 | 5506 ft | 273 kts | 300° |
| 2026-05-04 18:31 | -33.11323 | -70.75508 | 5384 ft | 274 kts | 273° |
| 2026-05-04 18:31 | -33.11672 | -70.77737 | 5259 ft | 277 kts | 246° |
| 2026-05-04 18:31 | -33.12820 | -70.79535 | 5056 ft | 275 kts | 218° |
| 2026-05-04 18:32 | -33.14521 | -70.80510 | 5010 ft | 266 kts | 194° |
| 2026-05-04 18:32 | -33.16267 | -70.80903 | 5001 ft | 253 kts | 188° |
| 2026-05-04 18:32 | -33.17958 | -70.81231 | 5003 ft | 238 kts | 190° |
| 2026-05-04 18:32 | -33.19565 | -70.81407 | 5004 ft | 230 kts | 179° |
| 2026-05-04 18:33 | -33.21211 | -70.81246 | 4924 ft | 239 kts | 174° |
| 2026-05-04 18:33 | -33.22846 | -70.81103 | 4839 ft | 234 kts | 176° |
| 2026-05-04 18:33 | -33.24460 | -70.81005 | 4550 ft | 231 kts | 177° |
| 2026-05-04 18:33 | -33.26071 | -70.80949 | 4095 ft | 232 kts | 179° |
| 2026-05-04 18:34 | -33.27696 | -70.80869 | 3605 ft | 232 kts | 178° |
| 2026-05-04 18:34 | -33.29267 | -70.80795 | 3195 ft | 221 kts | 178° |
| 2026-05-04 18:34 | -33.30704 | -70.80721 | 2875 ft | 197 kts | 177° |
| 2026-05-04 18:34 | -33.31990 | -70.80647 | 2627 ft | 170 kts | 177° |
| 2026-05-04 18:35 | -33.33099 | -70.80588 | 2396 ft | 152 kts | 176° |
| 2026-05-04 18:35 | -33.34122 | -70.80536 | 2196 ft | 144 kts | 176° |
| 2026-05-04 18:35 | -33.35123 | -70.80482 | 2024 ft | 144 kts | 175° |
| 2026-05-04 18:35 | -33.36128 | -70.80426 | 1819 ft | 144 kts | 176° |
| 2026-05-04 18:36 | -33.37106 | -70.80369 | 1620 ft | 133 kts | 176° |
| 2026-05-04 18:36 | -33.37977 | -70.80330 | 1572 ft | 107 kts | 177° |
| 2026-05-04 18:36 | -33.38518 | -70.80300 | 1573 ft | 50 kts | 177° |
| 2026-05-04 18:36 | -33.38767 | -70.80288 | 1574 ft | 33 kts | 178° |
| 2026-05-04 18:37 | -33.38989 | -70.80274 | 1573 ft | 31 kts | 176° |
| 2026-05-04 18:37 | -33.39194 | -70.80259 | 1572 ft | 29 kts | 171° |
| 2026-05-04 18:37 | -33.39371 | -70.80169 | 1570 ft | 27 kts | 150° |
| 2026-05-04 18:37 | -33.39495 | -70.80068 | 1566 ft | 17 kts | 135° |
| 2026-05-04 18:38 | -33.39530 | -70.79942 | 1565 ft | 17 kts | 91° |
| 2026-05-04 18:38 | -33.39527 | -70.79807 | 1564 ft | 14 kts | 87° |
| 2026-05-04 18:38 | -33.39522 | -70.79690 | 1564 ft | 15 kts | 88° |
| 2026-05-04 18:38 | -33.39527 | -70.79612 | 1564 ft | 1 kts | 142° |
| 2026-05-04 18:39 | -33.39540 | -70.79610 | 1564 ft | 3 kts | 178° |
| 2026-05-04 18:39 | -33.39567 | -70.79609 | 1564 ft | 4 kts | 177° |
| 2026-05-04 18:39 | -33.39591 | -70.79608 | 1564 ft | 3 kts | 177° |